createdAt,value
2017-05-11T00:00:16.391Z,971.7
2017-05-11T00:01:18.747Z,971.7
2017-05-11T00:02:21.099Z,971.7
2017-05-11T00:03:23.450Z,971.7
2017-05-11T00:04:25.781Z,971.7
2017-05-11T00:05:28.199Z,971.7
2017-05-11T00:06:30.561Z,971.7
2017-05-11T00:07:33.242Z,971.7
2017-05-11T00:08:35.603Z,971.7
2017-05-11T00:09:37.998Z,971.7
2017-05-11T00:10:40.332Z,971.7
2017-05-11T00:11:42.681Z,971.5
2017-05-11T00:12:45.059Z,971.6
2017-05-11T00:13:47.445Z,971.6
2017-05-11T00:14:49.910Z,971.3
2017-05-11T00:15:52.257Z,971.6
2017-05-11T00:16:54.639Z,971.6
2017-05-11T00:17:57.009Z,971.6
2017-05-11T00:18:59.498Z,971.6
2017-05-11T00:20:01.859Z,971.6
2017-05-11T00:21:04.218Z,971.5
2017-05-11T00:22:06.635Z,971.5
2017-05-11T00:23:09.022Z,971.6
2017-05-11T00:24:12.077Z,971.5
2017-05-11T00:25:14.415Z,971.6
2017-05-11T00:26:16.787Z,971.5
2017-05-11T00:27:19.164Z,971.5
2017-05-11T00:28:21.574Z,971.5
2017-05-11T00:29:24.021Z,971.5
2017-05-11T00:30:26.362Z,971.4
2017-05-11T00:31:28.780Z,971.4
2017-05-11T00:32:31.223Z,971.4
2017-05-11T00:33:33.619Z,971.4
2017-05-11T00:34:36.013Z,971.4
2017-05-11T00:35:38.416Z,971.4
2017-05-11T00:36:40.806Z,971.4
2017-05-11T00:37:43.191Z,971.4
2017-05-11T00:38:45.576Z,971.4
2017-05-11T00:39:47.993Z,971.4
2017-05-11T00:40:50.377Z,971.4
2017-05-11T00:41:52.733Z,971.4
2017-05-11T00:42:55.085Z,971.3
2017-05-11T00:43:57.457Z,971.4
2017-05-11T00:44:59.836Z,971.4
2017-05-11T00:46:02.226Z,971.3
2017-05-11T00:47:04.603Z,971.3
2017-05-11T00:48:06.983Z,971.4
2017-05-11T00:49:10.377Z,971.4
2017-05-11T00:50:12.717Z,971.4
2017-05-11T00:51:15.036Z,971.3
2017-05-11T00:52:17.469Z,971.3
2017-05-11T00:53:19.893Z,971.3
2017-05-11T00:54:22.282Z,971.4
2017-05-11T00:55:24.655Z,971.3
2017-05-11T00:56:27.014Z,971.3
2017-05-11T00:57:29.434Z,971.3
2017-05-11T00:58:31.841Z,971.3
2017-05-11T00:59:34.216Z,971.3
2017-05-11T01:00:36.585Z,971.3
2017-05-11T01:01:38.979Z,971.2
2017-05-11T01:02:41.855Z,971.3
2017-05-11T01:03:44.571Z,971.3
2017-05-11T01:04:47.114Z,971.3
2017-05-11T01:05:49.457Z,971.3
2017-05-11T01:06:52.021Z,971.2
2017-05-11T01:07:54.391Z,971.2
2017-05-11T01:08:56.780Z,971.2
2017-05-11T01:09:59.143Z,971.2
2017-05-11T01:11:01.513Z,971.3
2017-05-11T01:12:03.846Z,971.2
2017-05-11T01:13:06.252Z,971.2
2017-05-11T01:14:09.016Z,971.2
2017-05-11T01:15:11.411Z,971.2
2017-05-11T01:16:13.765Z,971.2
2017-05-11T01:17:16.172Z,971.2
2017-05-11T01:18:18.603Z,971.1
2017-05-11T01:19:21.004Z,971.2
2017-05-11T01:20:23.356Z,971.1
2017-05-11T01:21:25.744Z,971.2
2017-05-11T01:22:28.112Z,971.2
2017-05-11T01:23:30.495Z,971.1
2017-05-11T01:24:32.903Z,971.2
2017-05-11T01:25:35.284Z,971.1
2017-05-11T01:26:37.624Z,971.1
2017-05-11T01:27:40.035Z,971.1
2017-05-11T01:28:42.415Z,971.1
2017-05-11T01:29:45.141Z,971.1
2017-05-11T01:30:47.507Z,971.1
2017-05-11T01:31:49.849Z,971.1
2017-05-11T01:32:52.229Z,971.1
2017-05-11T01:33:54.588Z,971.1
2017-05-11T01:34:56.964Z,971.1
2017-05-11T01:35:59.331Z,971.1
2017-05-11T01:37:01.709Z,971.1
2017-05-11T01:38:04.103Z,971.1
2017-05-11T01:39:06.515Z,971.1
2017-05-11T01:40:08.895Z,971.1
2017-05-11T01:41:11.295Z,971.1
2017-05-11T01:42:13.668Z,971
2017-05-11T01:43:16.029Z,971.1
2017-05-11T01:44:18.425Z,971
2017-05-11T01:45:20.791Z,970.6
2017-05-11T01:46:23.254Z,971
2017-05-11T01:47:25.712Z,971
2017-05-11T01:48:28.115Z,971
2017-05-11T01:49:30.532Z,970.9
2017-05-11T01:50:32.895Z,971
2017-05-11T01:51:35.367Z,971
2017-05-11T01:52:37.800Z,971
2017-05-11T01:53:40.179Z,971
2017-05-11T01:54:42.556Z,970.9
2017-05-11T01:55:44.950Z,970.9
2017-05-11T01:56:47.358Z,970.5
2017-05-11T01:57:49.722Z,970.9
2017-05-11T01:58:52.122Z,970.9
2017-05-11T01:59:54.474Z,970.9
2017-05-11T02:00:56.875Z,970.9
2017-05-11T02:01:59.238Z,970.9
2017-05-11T02:04:13.030Z,970.8
2017-05-11T02:05:15.464Z,970.8
2017-05-11T02:06:17.880Z,970.4
2017-05-11T02:07:20.243Z,970.7
2017-05-11T02:08:22.652Z,970.7
2017-05-11T02:09:25.038Z,970.7
2017-05-11T02:10:27.383Z,970.6
2017-05-11T02:11:29.924Z,970.7
2017-05-11T02:12:32.336Z,970.7
2017-05-11T02:13:34.910Z,970.6
2017-05-11T02:14:37.353Z,970.7
2017-05-11T02:15:39.791Z,970.6
2017-05-11T02:16:42.168Z,970.6
2017-05-11T02:17:44.550Z,970.6
2017-05-11T02:18:46.937Z,970.6
2017-05-11T02:19:49.316Z,970.6
2017-05-11T02:20:51.772Z,970.6
2017-05-11T02:21:54.176Z,970.5
2017-05-11T02:22:56.504Z,970.6
2017-05-11T02:23:58.858Z,970.6
2017-05-11T02:25:01.292Z,970.6
2017-05-11T02:26:03.648Z,970.6
2017-05-11T02:27:06.310Z,970.5
2017-05-11T02:28:08.707Z,970.5
2017-05-11T02:29:11.056Z,970.5
2017-05-11T02:30:13.432Z,970.5
2017-05-11T02:31:15.799Z,970.5
2017-05-11T02:32:18.152Z,970.5
2017-05-11T02:33:20.629Z,970.5
2017-05-11T02:34:23.004Z,970.5
2017-05-11T02:35:25.366Z,970.4
2017-05-11T02:36:27.767Z,970.4
2017-05-11T02:37:30.174Z,970.3
2017-05-11T02:38:32.528Z,970.4
2017-05-11T02:39:34.934Z,970.5
2017-05-11T02:40:37.388Z,970.5
2017-05-11T02:41:39.757Z,970.1
2017-05-11T02:42:42.105Z,970.4
2017-05-11T02:43:44.468Z,970.4
2017-05-11T02:44:46.922Z,970.5
2017-05-11T02:45:49.352Z,970.4
2017-05-11T02:46:51.745Z,970.4
2017-05-11T02:47:54.135Z,970.4
2017-05-11T02:48:56.517Z,970.4
2017-05-11T02:49:58.968Z,970.3
2017-05-11T02:51:01.341Z,970.3
2017-05-11T02:52:03.680Z,970.4
2017-05-11T02:53:06.109Z,970.3
2017-05-11T02:54:08.483Z,970.3
2017-05-11T02:55:11.185Z,970.3
2017-05-11T02:56:13.574Z,970.3
2017-05-11T02:57:15.939Z,970.3
2017-05-11T02:58:18.348Z,970.3
2017-05-11T02:59:20.751Z,970.4
2017-05-11T03:00:23.074Z,970.3
2017-05-11T03:01:25.502Z,970.3
2017-05-11T03:02:28.434Z,970.3
2017-05-11T03:03:30.829Z,970.3
2017-05-11T03:04:33.185Z,970.3
2017-05-11T03:05:35.597Z,970.2
2017-05-11T03:06:37.962Z,970.3
2017-05-11T03:07:40.302Z,970.1
2017-05-11T03:08:42.740Z,970.2
2017-05-11T03:09:45.149Z,970.2
2017-05-11T03:10:47.600Z,970.2
2017-05-11T03:11:49.974Z,970.2
2017-05-11T03:12:52.291Z,970.2
2017-05-11T03:13:54.664Z,969.8
2017-05-11T03:14:57.008Z,970.2
2017-05-11T03:15:59.630Z,969.8
2017-05-11T03:17:02.039Z,970.2
2017-05-11T03:18:04.438Z,970.2
2017-05-11T03:19:06.818Z,970.2
2017-05-11T03:20:09.264Z,969.8
2017-05-11T03:21:11.651Z,970.2
2017-05-11T03:22:14.015Z,970.2
2017-05-11T03:23:16.381Z,970.2
2017-05-11T03:24:18.780Z,970.2
2017-05-11T03:25:21.141Z,970.1
2017-05-11T03:26:23.495Z,970.1
2017-05-11T03:27:25.838Z,970.2
2017-05-11T03:28:28.209Z,970.2
2017-05-11T03:29:30.644Z,970.2
2017-05-11T03:30:33.101Z,970.2
2017-05-11T03:31:35.531Z,970.2
2017-05-11T03:32:38.109Z,969.8
2017-05-11T03:33:40.522Z,970.2
2017-05-11T03:34:42.908Z,970.2
2017-05-11T03:35:45.253Z,970.1
2017-05-11T03:36:47.650Z,970.3
2017-05-11T03:37:50.032Z,970.2
2017-05-11T03:38:52.393Z,970.2
2017-05-11T03:39:54.752Z,970.2
2017-05-11T03:40:57.083Z,970.2
2017-05-11T03:41:59.445Z,970.1
2017-05-11T03:43:01.895Z,970.1
2017-05-11T03:44:04.259Z,970.2
2017-05-11T03:45:06.657Z,970.1
2017-05-11T03:46:09.061Z,970.1
2017-05-11T03:47:11.856Z,970
2017-05-11T03:48:14.296Z,969.7
2017-05-11T03:49:16.732Z,970.1
2017-05-11T03:50:19.054Z,970.1
2017-05-11T03:51:21.451Z,970.1
2017-05-11T03:52:23.814Z,970.2
2017-05-11T03:53:26.168Z,970.1
2017-05-11T03:54:28.579Z,970.2
2017-05-11T03:55:31.088Z,970.2
2017-05-11T03:56:33.532Z,970.2
2017-05-11T03:57:35.931Z,970.2
2017-05-11T03:58:38.357Z,970.2
2017-05-11T03:59:40.786Z,970.2
2017-05-11T04:00:43.150Z,970.2
2017-05-11T04:01:45.538Z,969.9
2017-05-11T04:02:47.924Z,970.2
2017-05-11T04:03:50.291Z,970.2
2017-05-11T04:04:52.638Z,970.2
2017-05-11T04:05:55.052Z,970.2
2017-05-11T04:06:57.433Z,970.1
2017-05-11T04:07:59.834Z,970.1
2017-05-11T04:09:02.235Z,970.1
2017-05-11T04:10:04.637Z,970.1
2017-05-11T04:11:07.014Z,970.1
2017-05-11T04:12:09.378Z,970.1
2017-05-11T04:13:11.965Z,970.1
2017-05-11T04:14:14.330Z,970.1
2017-05-11T04:15:16.725Z,970.1
2017-05-11T04:16:19.103Z,970.1
2017-05-11T04:17:21.486Z,970.1
2017-05-11T04:18:24.516Z,970
2017-05-11T04:19:26.863Z,970.1
2017-05-11T04:20:29.356Z,970.1
2017-05-11T04:21:31.780Z,970.1
2017-05-11T04:22:34.194Z,970.1
2017-05-11T04:23:36.543Z,969.8
2017-05-11T04:24:38.914Z,969.8
2017-05-11T04:25:41.286Z,970
2017-05-11T04:26:44.969Z,970.1
2017-05-11T04:27:47.428Z,970.1
2017-05-11T04:28:49.805Z,970.1
2017-05-11T04:29:52.190Z,970
2017-05-11T04:30:54.529Z,970
2017-05-11T04:31:56.884Z,970
2017-05-11T04:32:59.360Z,970
2017-05-11T04:34:01.808Z,970
2017-05-11T04:35:04.234Z,970
2017-05-11T04:36:06.611Z,970
2017-05-11T04:37:09.100Z,969.9
2017-05-11T04:38:11.518Z,969.9
2017-05-11T04:39:13.903Z,969.9
2017-05-11T04:40:16.275Z,969.9
2017-05-11T04:41:18.726Z,970
2017-05-11T04:42:21.337Z,969.9
2017-05-11T04:43:23.738Z,969.9
2017-05-11T04:44:26.101Z,969.9
2017-05-11T04:45:28.515Z,969.6
2017-05-11T04:46:30.943Z,969.9
2017-05-11T04:47:33.321Z,969.9
2017-05-11T04:48:35.704Z,970
2017-05-11T04:49:38.132Z,969.9
2017-05-11T04:50:40.613Z,969.9
2017-05-11T04:51:42.993Z,969.9
2017-05-11T04:52:45.371Z,969.8
2017-05-11T04:53:47.958Z,969.9
2017-05-11T04:54:50.356Z,970
2017-05-11T04:55:53.558Z,969.5
2017-05-11T04:56:55.908Z,969.9
2017-05-11T04:57:58.668Z,969.9
2017-05-11T04:59:01.158Z,969.9
2017-05-11T05:00:03.510Z,969.9
2017-05-11T05:01:05.923Z,969.9
2017-05-11T05:02:08.268Z,969.9
2017-05-11T05:03:11.168Z,969.9
2017-05-11T05:04:13.568Z,969.8
2017-05-11T05:05:15.964Z,969.9
2017-05-11T05:06:18.327Z,969.6
2017-05-11T05:07:20.713Z,969.8
2017-05-11T05:08:23.244Z,969.8
2017-05-11T05:09:26.455Z,969.8
2017-05-11T05:10:28.841Z,969.8
2017-05-11T05:11:31.311Z,969.8
2017-05-11T05:12:33.700Z,969.8
2017-05-11T05:13:36.268Z,969.8
2017-05-11T05:14:38.671Z,969.7
2017-05-11T05:15:41.093Z,969.7
2017-05-11T05:16:43.576Z,969.7
2017-05-11T05:17:46.450Z,969.7
2017-05-11T05:18:48.824Z,969.7
2017-05-11T05:19:51.373Z,969.4
2017-05-11T05:20:53.976Z,969.7
2017-05-11T05:21:56.528Z,969.8
2017-05-11T05:23:00.200Z,969.8
2017-05-11T05:24:02.825Z,969.7
2017-05-11T05:25:06.327Z,969.7
2017-05-11T05:26:09.454Z,969.7
2017-05-11T05:27:12.179Z,969.7
2017-05-11T05:28:19.224Z,969.4
2017-05-11T05:29:21.814Z,969.4
2017-05-11T05:30:28.701Z,969.7
2017-05-11T05:31:31.208Z,969.7
2017-05-11T05:32:33.741Z,969.4
2017-05-11T05:33:36.216Z,969.7
2017-05-11T05:34:38.679Z,969.7
2017-05-11T05:35:41.282Z,969.4
2017-05-11T05:36:48.191Z,969.7
2017-05-11T05:37:50.796Z,969.7
2017-05-11T05:38:53.919Z,969.6
2017-05-11T05:39:56.419Z,969.2
2017-05-11T05:40:59.094Z,969.3
2017-05-11T05:46:55.522Z,969.6
2017-05-11T05:47:57.991Z,969.6
2017-05-11T05:49:00.416Z,969.5
2017-05-11T05:50:02.909Z,969.6
2017-05-11T05:51:05.713Z,969.6
2017-05-11T05:52:08.077Z,969.6
2017-05-11T05:53:10.435Z,969.6
2017-05-11T05:54:12.766Z,969.6
2017-05-11T05:55:15.107Z,969.6
2017-05-11T05:56:17.520Z,969.6
2017-05-11T05:57:20.333Z,969.5
2017-05-11T05:58:23.046Z,969.6
2017-05-11T05:59:25.439Z,969.6
2017-05-11T06:00:27.829Z,969.5
2017-05-11T06:01:30.254Z,969.5
2017-05-11T06:02:32.682Z,969.5
2017-05-11T06:03:35.215Z,969.5
2017-05-11T06:04:38.259Z,969.5
2017-05-11T06:05:40.616Z,969.4
2017-05-11T06:06:46.833Z,969.5
2017-05-11T06:07:49.234Z,969.5
2017-05-11T06:08:51.686Z,969.4
2017-05-11T06:09:54.067Z,969.4
2017-05-11T06:10:57.656Z,969.4
2017-05-11T06:12:03.532Z,969.3
2017-05-11T06:13:05.952Z,969.3
2017-05-11T06:14:08.382Z,969.3
2017-05-11T06:15:10.858Z,969.3
2017-05-11T06:16:17.092Z,969.3
2017-05-11T06:17:19.546Z,969.4
2017-05-11T06:18:21.991Z,969.4
2017-05-11T06:19:24.398Z,969.4
2017-05-11T06:20:26.820Z,969.3
2017-05-11T06:21:29.497Z,969.4
2017-05-11T06:22:32.298Z,969.4
2017-05-11T06:23:34.736Z,969.2
2017-05-11T06:24:37.303Z,969.3
2017-05-11T06:25:39.967Z,969.3
2017-05-11T06:26:42.935Z,969.2
2017-05-11T06:27:45.360Z,969.3
2017-05-11T06:28:47.809Z,969
2017-05-11T06:29:50.240Z,969.3
2017-05-11T06:30:52.727Z,969.4
2017-05-11T06:31:55.263Z,969.1
2017-05-11T06:32:57.718Z,969.3
2017-05-11T06:34:00.170Z,969.4
2017-05-11T06:35:02.697Z,969.4
2017-05-11T06:36:05.229Z,969.3
2017-05-11T06:37:08.269Z,969.3
2017-05-11T06:38:10.725Z,969.4
2017-05-11T06:39:13.292Z,969.3
2017-05-11T06:40:15.731Z,969.3
2017-05-11T06:41:18.263Z,969.3
2017-05-11T06:42:21.073Z,969.3
2017-05-11T06:43:23.627Z,969.3
2017-05-11T06:44:26.047Z,969.3
2017-05-11T06:45:28.465Z,969.4
2017-05-11T06:46:31.021Z,969.4
2017-05-11T06:47:33.466Z,969.4
2017-05-11T06:48:36.088Z,969.4
2017-05-11T06:49:39.181Z,969.2
2017-05-11T06:50:41.668Z,969.3
2017-05-11T06:51:44.181Z,969.4
2017-05-11T06:52:47.221Z,969.4
2017-05-11T06:53:50.298Z,969.3
2017-05-11T06:56:04.520Z,969.3
2017-05-11T06:57:06.913Z,969.3
2017-05-11T06:58:09.430Z,969.3
2017-05-11T06:59:11.851Z,969.3
2017-05-11T07:00:14.368Z,969.4
2017-05-11T07:01:16.860Z,969.1
2017-05-11T07:02:19.326Z,969.4
2017-05-11T07:03:21.738Z,969.4
2017-05-11T07:04:24.156Z,969.4
2017-05-11T07:05:27.561Z,969.4
2017-05-11T07:06:30.663Z,969.4
2017-05-11T07:07:33.166Z,969.3
2017-05-11T07:08:35.869Z,969.3
2017-05-11T07:09:38.358Z,969.3
2017-05-11T07:10:47.974Z,969.2
2017-05-11T07:11:56.514Z,969.3
2017-05-11T07:13:02.891Z,969.3
2017-05-11T07:14:05.407Z,969.2
2017-05-11T07:15:08.180Z,969.2
2017-05-11T07:16:12.930Z,969.2
2017-05-11T07:17:15.677Z,969
2017-05-11T07:18:18.204Z,969.2
2017-05-11T07:19:20.769Z,969.1
2017-05-11T07:20:26.772Z,969.2
2017-05-11T07:21:31.030Z,969.3
2017-05-11T07:22:33.790Z,969.3
2017-05-11T07:23:36.823Z,969.2
2017-05-11T07:24:40.776Z,969.2
2017-05-11T07:25:43.317Z,969.3
2017-05-11T07:26:47.297Z,969.3
2017-05-11T07:27:50.208Z,969.2
2017-05-11T07:28:52.800Z,969.2
2017-05-11T07:29:55.266Z,969.2
2017-05-11T07:30:57.714Z,969.1
2017-05-11T07:32:00.179Z,969.1
2017-05-11T07:33:02.967Z,968.7
2017-05-11T07:34:06.605Z,969.2
2017-05-11T07:35:09.409Z,969.1
2017-05-11T07:36:12.374Z,969.1
2017-05-11T07:37:14.910Z,969
2017-05-11T07:38:17.386Z,969
2017-05-11T07:39:21.414Z,969
2017-05-11T07:40:23.949Z,969
2017-05-11T07:41:26.575Z,968.9
2017-05-11T07:42:29.385Z,969
2017-05-11T07:43:31.906Z,969
2017-05-11T07:44:34.761Z,968.7
2017-05-11T07:45:39.073Z,969
2017-05-11T07:46:41.669Z,969
2017-05-11T07:47:44.165Z,969
2017-05-11T07:48:47.996Z,969
2017-05-11T07:49:50.425Z,969
2017-05-11T07:50:52.894Z,968.9
2017-05-11T07:51:55.425Z,968.9
2017-05-11T07:52:57.915Z,969
2017-05-11T07:54:00.398Z,969
2017-05-11T07:55:02.892Z,968.9
2017-05-11T07:56:05.423Z,968.9
2017-05-11T07:57:07.822Z,968.9
2017-05-11T07:58:10.265Z,968.9
2017-05-11T07:59:12.774Z,968.9
2017-05-11T08:00:15.353Z,968.8
2017-05-11T08:01:17.910Z,968.8
2017-05-11T08:02:21.158Z,968.8
2017-05-11T08:03:23.655Z,968.7
2017-05-11T08:04:26.107Z,968.8
2017-05-11T08:05:28.659Z,968.8
2017-05-11T08:06:31.261Z,968.7
2017-05-11T08:07:33.924Z,968.5
2017-05-11T08:08:36.822Z,968.8
2017-05-11T08:09:39.236Z,968.7
2017-05-11T08:10:41.931Z,968.5
2017-05-11T08:11:44.397Z,968.6
2017-05-11T08:12:47.030Z,968.6
2017-05-11T08:13:49.492Z,968.6
2017-05-11T08:14:51.980Z,968.7
2017-05-11T08:15:54.501Z,968.7
2017-05-11T08:16:57.044Z,968.6
2017-05-11T08:17:59.534Z,968.6
2017-05-11T08:19:03.057Z,968.7
2017-05-11T08:20:05.603Z,968.6
2017-05-11T08:21:08.048Z,968.5
2017-05-11T08:22:10.573Z,968.1
2017-05-11T08:23:13.060Z,968.5
2017-05-11T08:24:15.511Z,968.7
2017-05-11T08:25:17.984Z,968.5
2017-05-11T08:26:20.429Z,968.6
2017-05-11T08:32:13.312Z,968.6
2017-05-11T08:33:15.831Z,968.5
2017-05-11T08:34:18.355Z,968.5
2017-05-11T08:35:20.946Z,968.5
2017-05-11T08:36:23.574Z,968.3
2017-05-11T08:37:26.133Z,968.4
2017-05-11T08:38:29.640Z,967.9
2017-05-11T08:39:33.490Z,968.3
2017-05-11T08:40:35.964Z,968.4
2017-05-11T08:41:38.437Z,968.3
2017-05-11T08:42:41.111Z,968.4
2017-05-11T08:43:43.681Z,968.3
2017-05-11T08:44:46.162Z,968.3
2017-05-11T08:45:49.029Z,968.3
2017-05-11T08:46:52.836Z,968.3
2017-05-11T08:47:55.286Z,968.4
2017-05-11T08:48:57.798Z,968.3
2017-05-11T08:50:00.247Z,968.3
2017-05-11T08:51:03.173Z,968.2
2017-05-11T08:52:05.654Z,968.3
2017-05-11T08:53:09.205Z,968
2017-05-11T08:54:11.853Z,968.2
2017-05-11T08:55:14.350Z,968.2
2017-05-11T08:56:16.786Z,968.3
2017-05-11T08:57:19.277Z,968.1
2017-05-11T08:58:21.860Z,968.2
2017-05-11T08:59:24.411Z,968.2
2017-05-11T09:00:26.949Z,968.2
2017-05-11T09:01:30.112Z,968.2
2017-05-11T09:02:32.725Z,968.1
2017-05-11T09:03:35.182Z,968.2
2017-05-11T09:04:37.689Z,968.2
2017-05-11T09:05:40.119Z,968.2
2017-05-11T09:06:43.368Z,968.1
2017-05-11T09:29:51.922Z,968
2017-05-11T09:30:54.391Z,967.9
2017-05-11T09:31:56.952Z,968
2017-05-11T09:33:01.090Z,967.9
2017-05-11T09:34:03.691Z,967.9
2017-05-11T09:35:07.415Z,967.6
2017-05-11T09:36:09.822Z,967.9
2017-05-11T09:37:12.937Z,967.8
2017-05-11T09:38:15.464Z,967.8
2017-05-11T09:39:18.006Z,967.8
2017-05-11T09:40:20.553Z,967.7
2017-05-11T09:41:23.164Z,967.7
2017-05-11T09:42:25.603Z,967.8
2017-05-11T09:43:28.099Z,967.7
2017-05-11T09:44:31.749Z,967.7
2017-05-11T09:45:35.094Z,967.6
2017-05-11T09:46:37.495Z,967.7
2017-05-11T09:47:39.927Z,967.7
2017-05-11T09:48:42.475Z,967.7
2017-05-11T09:49:44.919Z,967.8
2017-05-11T09:50:47.332Z,967.8
2017-05-11T09:51:49.775Z,967.7
2017-05-11T09:52:52.188Z,967.7
2017-05-11T09:53:54.588Z,967.8
2017-05-11T09:54:57.193Z,967.8
2017-05-11T09:55:59.638Z,967.9
2017-05-11T09:57:02.342Z,967.9
2017-05-11T09:58:06.899Z,967.8
2017-05-11T09:59:09.414Z,967.8
2017-05-11T10:00:11.935Z,967.9
2017-05-11T10:01:14.472Z,967.8
2017-05-11T10:02:17.972Z,967.8
2017-05-11T10:03:21.010Z,967.6
2017-05-11T10:04:23.566Z,967.7
2017-05-11T10:05:26.253Z,967.8
2017-05-11T10:06:28.912Z,967.7
2017-05-11T10:07:32.064Z,967.6
2017-05-11T10:08:34.576Z,967.7
2017-05-11T10:09:37.205Z,967.7
2017-05-11T10:10:40.772Z,967.7
2017-05-11T10:11:43.492Z,967.2
2017-05-11T10:12:46.030Z,967.5
2017-05-11T10:13:50.004Z,967.8
2017-05-11T10:14:52.612Z,967.6
2017-05-11T10:15:55.272Z,967.6
2017-05-11T10:16:57.754Z,967.7
2017-05-11T10:18:00.191Z,967.7
2017-05-11T10:19:05.726Z,967.4
2017-05-11T10:20:08.208Z,967.6
2017-05-11T10:21:10.678Z,967.7
2017-05-11T10:22:13.279Z,967.8
2017-05-11T10:23:17.855Z,967.6
2017-05-11T10:24:20.326Z,967.7
2017-05-11T10:25:22.901Z,967.6
2017-05-11T10:26:25.351Z,967.6
2017-05-11T10:27:29.798Z,967.6
2017-05-11T10:28:33.521Z,967.7
2017-05-11T10:29:36.021Z,967.6
2017-05-11T10:30:38.550Z,967.6
2017-05-11T10:31:40.972Z,967.6
2017-05-11T10:32:43.528Z,967.6
2017-05-11T10:33:45.998Z,967.6
2017-05-11T10:34:48.614Z,967.6
2017-05-11T10:35:51.103Z,967.6
2017-05-11T10:36:53.581Z,967.5
2017-05-11T10:37:56.586Z,967.5
2017-05-11T10:38:59.058Z,967.5
2017-05-11T10:40:02.076Z,967.5
2017-05-11T10:41:04.564Z,967.5
2017-05-11T10:42:07.037Z,967.5
2017-05-11T10:43:09.713Z,967.5
2017-05-11T10:44:13.229Z,967.5
2017-05-11T10:45:15.744Z,967.5
2017-05-11T10:46:18.172Z,967.5
2017-05-11T10:47:20.609Z,967.4
2017-05-11T10:48:23.249Z,967.4
2017-05-11T10:49:27.695Z,967.4
2017-05-11T10:50:30.174Z,967.4
2017-05-11T10:51:32.701Z,967.4
2017-05-11T10:52:36.099Z,967.5
2017-05-11T10:53:40.286Z,967.1
2017-05-11T10:54:43.254Z,967.4
2017-05-11T10:55:46.339Z,967.3
2017-05-11T10:56:50.055Z,967.3
2017-05-11T10:57:53.202Z,967.4
2017-05-11T10:58:56.532Z,967.3
2017-05-11T10:59:59.226Z,967.3
2017-05-11T11:01:01.846Z,967.3
2017-05-11T11:02:04.576Z,967.3
2017-05-11T11:03:07.071Z,967.2
2017-05-11T11:04:09.513Z,967.3
2017-05-11T11:05:12.410Z,967.2
2017-05-11T11:06:14.844Z,967.1
2017-05-11T11:07:17.389Z,967.2
2017-05-11T11:08:22.985Z,966.9
2017-05-11T11:09:25.477Z,966.9
2017-05-11T11:10:27.901Z,967.3
2017-05-11T11:11:30.422Z,967.1
2017-05-11T11:12:32.976Z,967.2
2017-05-11T11:13:35.444Z,967.1
2017-05-11T11:14:38.504Z,967.1
2017-05-11T11:15:41.775Z,967.1
2017-05-11T11:16:44.424Z,967.1
2017-05-11T11:17:46.994Z,967.2
2017-05-11T11:18:49.468Z,967.2
2017-05-11T11:19:52.126Z,966.9
2017-05-11T11:20:54.623Z,966.8
2017-05-11T11:21:57.106Z,967.1
2017-05-11T11:22:59.546Z,967
2017-05-11T11:24:02.123Z,967
2017-05-11T11:25:04.583Z,967
2017-05-11T11:26:07.041Z,967
2017-05-11T11:27:10.191Z,967
2017-05-11T11:28:12.770Z,966.7
2017-05-11T11:29:15.247Z,967
2017-05-11T11:30:17.738Z,967
2017-05-11T11:31:20.231Z,967
2017-05-11T11:32:22.931Z,967.1
2017-05-11T11:33:25.452Z,967
2017-05-11T11:34:28.493Z,966.9
2017-05-11T11:35:30.998Z,966.9
2017-05-11T11:36:33.570Z,966.9
2017-05-11T11:37:36.613Z,966.9
2017-05-11T11:38:39.801Z,966.7
2017-05-11T11:39:43.893Z,967
2017-05-11T11:40:47.051Z,967
2017-05-11T11:41:51.199Z,966.9
2017-05-11T11:42:54.116Z,966.8
2017-05-11T11:43:56.758Z,966.7
2017-05-11T11:44:59.250Z,966.7
2017-05-11T11:46:02.451Z,966.7
2017-05-11T11:47:07.428Z,966.7
2017-05-11T11:48:10.316Z,966.7
2017-05-11T11:49:13.515Z,966.8
2017-05-11T11:50:17.657Z,966.5
2017-05-11T11:51:20.131Z,966.8
2017-05-11T11:52:22.829Z,966.6
2017-05-11T11:53:25.307Z,966.6
2017-05-11T11:54:27.764Z,966.7
2017-05-11T11:55:30.899Z,966.7
2017-05-11T11:56:33.526Z,966.7
2017-05-11T11:57:36.842Z,966.8
2017-05-11T11:58:40.320Z,966.7
2017-05-11T11:59:50.472Z,966.8
2017-05-11T12:00:53.659Z,966.7
2017-05-11T12:01:56.851Z,966.7
2017-05-11T12:02:59.399Z,966.7
2017-05-11T12:04:01.999Z,966.7
2017-05-11T12:05:05.373Z,966.7
2017-05-11T12:06:08.416Z,966.4
2017-05-11T12:07:10.848Z,966.6
2017-05-11T12:08:13.369Z,966.7
2017-05-11T12:09:21.108Z,966.6
2017-05-11T12:10:23.724Z,966.6
2017-05-11T12:11:26.259Z,966.6
2017-05-11T12:12:29.306Z,966.5
2017-05-11T12:13:31.848Z,966.6
2017-05-11T12:14:34.290Z,966.6
2017-05-11T12:15:37.678Z,966.5
2017-05-11T12:16:40.146Z,966.5
2017-05-11T12:17:42.630Z,966.5
2017-05-11T12:18:45.097Z,966.6
2017-05-11T12:19:48.404Z,966.5
2017-05-11T12:20:50.978Z,966.6
2017-05-11T12:21:54.477Z,966.5
2017-05-11T12:22:58.153Z,966.5
2017-05-11T12:24:00.674Z,966.2
2017-05-11T12:25:03.370Z,966.5
2017-05-11T12:26:05.810Z,966.4
2017-05-11T12:27:08.373Z,966.5
2017-05-11T12:28:10.863Z,966.2
2017-05-11T12:29:14.510Z,966.5
2017-05-11T12:30:17.946Z,966.4
2017-05-11T12:31:21.600Z,966.5
2017-05-11T12:32:27.210Z,966.5
2017-05-11T12:33:29.696Z,966.4
2017-05-11T12:34:32.673Z,966.4
2017-05-11T12:35:36.049Z,966.4
2017-05-11T12:36:39.241Z,966.3
2017-05-11T12:37:41.761Z,966.3
2017-05-11T12:38:44.401Z,966.1
2017-05-11T12:39:47.638Z,966.3
2017-05-11T12:40:51.095Z,966.2
2017-05-11T12:41:58.303Z,966.3
2017-05-11T12:43:01.430Z,966.4
2017-05-11T12:44:05.718Z,966.1
2017-05-11T12:45:08.260Z,966
2017-05-11T12:46:11.378Z,966.3
2017-05-11T12:47:13.892Z,966.3
2017-05-11T12:48:16.364Z,966.2
2017-05-11T12:49:18.950Z,966.2
2017-05-11T12:50:22.124Z,966.2
2017-05-11T12:51:24.597Z,966.2
2017-05-11T12:52:27.562Z,966.2
2017-05-11T12:53:30.077Z,966.1
2017-05-11T12:54:42.528Z,966.2
2017-05-11T12:55:46.785Z,966.1
2017-05-11T12:56:49.273Z,966.1
2017-05-11T12:57:51.677Z,966.2
2017-05-11T12:58:54.250Z,966.1
2017-05-11T12:59:57.718Z,966.2
2017-05-11T13:01:00.121Z,966.1
2017-05-11T13:02:02.747Z,965.8
2017-05-11T13:03:05.925Z,966.2
2017-05-11T13:04:09.317Z,966.1
2017-05-11T13:05:13.872Z,966.2
2017-05-11T13:06:16.240Z,965.9
2017-05-11T13:07:18.725Z,966.1
2017-05-11T13:08:21.551Z,966.1
2017-05-11T13:09:25.658Z,966.1
2017-05-11T13:10:33.004Z,966.1
2017-05-11T13:11:35.758Z,966.1
2017-05-11T13:12:43.434Z,965.9
2017-05-11T13:13:46.038Z,966
2017-05-11T13:14:48.476Z,965.8
2017-05-11T13:15:52.081Z,966
2017-05-11T13:16:58.859Z,966
2017-05-11T13:18:02.935Z,966
2017-05-11T13:19:05.552Z,965.9
2017-05-11T13:20:08.012Z,965.9
2017-05-11T13:21:10.455Z,965.9
2017-05-11T13:22:12.947Z,965.9
2017-05-11T13:23:15.408Z,966
2017-05-11T13:24:19.052Z,965.9
2017-05-11T13:25:21.477Z,966
2017-05-11T13:26:24.008Z,965.9
2017-05-11T13:27:26.494Z,965.9
2017-05-11T13:28:29.000Z,965.9
2017-05-11T13:29:31.463Z,965.7
2017-05-11T13:30:33.957Z,965.8
2017-05-11T13:31:36.436Z,965.8
2017-05-11T13:32:39.512Z,965.7
2017-05-11T13:33:43.558Z,965.8
2017-05-11T13:34:46.071Z,965.8
2017-05-11T13:35:48.553Z,965.8
2017-05-11T13:36:51.047Z,965.7
2017-05-11T13:37:53.638Z,965.8
2017-05-11T13:39:01.424Z,965.7
2017-05-11T13:40:04.056Z,965.3
2017-05-11T13:41:07.507Z,965.7
2017-05-11T13:42:10.765Z,965.8
2017-05-11T13:43:13.289Z,965.8
2017-05-11T13:44:15.755Z,965.8
2017-05-11T13:45:18.909Z,965.7
2017-05-11T13:46:21.337Z,965.7
2017-05-11T13:47:25.632Z,965.5
2017-05-11T13:48:28.082Z,965.7
2017-05-11T13:49:31.739Z,965.8
2017-05-11T13:50:34.272Z,965.7
2017-05-11T13:51:38.238Z,965.7
2017-05-11T13:52:41.262Z,965.7
2017-05-11T13:53:44.390Z,965.7
2017-05-11T13:54:47.872Z,965.7
2017-05-11T13:55:51.436Z,965.6
2017-05-11T13:56:53.960Z,965.7
2017-05-11T13:57:56.469Z,965.7
2017-05-11T13:59:00.848Z,965.7
2017-05-11T14:00:04.948Z,965.6
2017-05-11T14:01:09.516Z,965.6
2017-05-11T14:02:13.294Z,965.7
2017-05-11T14:03:15.718Z,965.6
2017-05-11T14:04:18.205Z,965.7
2017-05-11T14:05:21.636Z,965.7
2017-05-11T14:06:26.643Z,965.7